Pottsville, Kentucky
Current Conditions -  °F | °C
As of 6:55 AM on Thursday 23 Oct 2014 (Local Time) from KM25 Reporting Station
Haze Haze  
Wind Chill: 37°   Ceiling: Unl
Heat Index: 37°   Visibility: 4mi
Dew Point: 36°   Wind: 0mph
Humidity: 93%   Direction: NA
Pressure: 30.22"   Gusts: NA
Location:  36.8496°N, 88.6894°W
Report Text: KM25 231155Z AUTO 00000KT 4SM BR CLR 03/02 A3022 RMK AO2
Loading
Personal Weather Stations






























Interactive Weather Map
Tropical Storm Tracking
New forecast layout! Learn more

10-Day Weather Forecast

Advertisements
Track Severe Weather on mobile